Time;durP1;ratioP1;P1;durP2;ratioP2;P2;SDS_P1;SDS_P2;PMS_P1;PMS_P2;Temp;Humidity;BMP_temperature;BMP_pressure;BME280_temperature;BME280_humidity;BME280_pressure;Samples;Min_cycle;Max_cycle;Signal;HPM_P1;HPM_P2
2022/01/11 00:01:05;;;;;;;0.93;0.93;;;;;;;5.47;100.00;91474.13;5015741;28;20727;-73
2022/01/11 00:03:33;;;;;;;0.83;0.83;;;;;;;5.39;100.00;91476.97;5015135;28;20671;-71
2022/01/11 00:06:09;;;;;;;0.80;0.80;;;;;;;4.95;100.00;91402.03;5015322;28;20634;-74
2022/01/11 00:08:39;;;;;;;0.90;0.90;;;;;;;5.47;100.00;91471.63;5015785;28;20687;-73
2022/01/11 00:11:07;;;;;;;3.17;1.10;;;;;;;5.42;100.00;91474.31;5015673;28;20469;-73
2022/01/11 00:13:36;;;;;;;0.97;0.97;;;;;;;5.52;100.00;91475.56;5014901;28;20481;-73
2022/01/11 00:16:04;;;;;;;0.70;0.70;;;;;;;5.03;100.00;91418.41;5015237;28;20555;-73
2022/01/11 00:18:51;;;;;;;0.63;0.63;;;;;;;5.62;100.00;91503.56;5014832;28;20550;-73
2022/01/11 00:21:19;;;;;;;0.80;0.80;;;;;;;5.00;100.00;91415.16;5016288;28;20574;-73
2022/01/11 00:26:32;;;;;;;0.80;0.80;;;;;;;5.24;100.00;91493.44;5016577;28;20663;-73
2022/01/11 00:28:59;;;;;;;0.60;0.60;;;;;;;5.33;100.00;91510.59;5018145;28;20605;-73
2022/01/11 00:31:26;;;;;;;0.50;0.50;;;;;;;4.82;100.00;91428.44;5018828;28;20540;-73
2022/01/11 00:33:54;;;;;;;0.53;0.53;;;;;;;5.44;100.00;91525.19;5018005;28;20515;-73
2022/01/11 00:36:21;;;;;;;0.70;0.70;;;;;;;5.56;100.00;91537.19;5019148;28;20671;-73
2022/01/11 00:38:50;;;;;;;0.53;0.53;;;;;;;5.61;100.00;91547.03;5018041;28;20574;-73
2022/01/11 00:41:17;;;;;;;0.50;0.50;;;;;;;5.60;100.00;91540.38;5018538;28;20511;-74
2022/01/11 00:43:45;;;;;;;0.63;0.63;;;;;;;5.64;100.00;91542.69;5018374;28;20575;-72
2022/01/11 00:46:13;;;;;;;0.50;0.50;;;;;;;5.70;100.00;91539.94;5018246;28;20655;-73
2022/01/11 00:48:41;;;;;;;1.33;0.83;;;;;;;5.68;100.00;91538.38;5018200;28;20524;-73
2022/01/11 00:51:10;;;;;;;0.70;0.70;;;;;;;5.33;100.00;91503.09;5019049;28;20493;-73
2022/01/11 00:53:38;;;;;;;0.80;0.80;;;;;;;5.40;100.00;91511.97;5018787;28;20463;-72
2022/01/11 00:56:07;;;;;;;0.47;0.47;;;;;;;5.72;100.00;91553.22;5018126;28;20198;-73
2022/01/11 00:58:34;;;;;;;0.90;0.90;;;;;;;5.69;100.00;91563.34;5019107;28;20602;-72
2022/01/11 01:01:01;;;;;;;0.63;0.63;;;;;;;5.74;100.00;91558.16;5018481;28;20457;-72
2022/01/11 01:03:29;;;;;;;0.90;0.90;;;;;;;5.66;100.00;91553.47;5019195;28;20190;-73
2022/01/11 01:05:57;;;;;;;0.93;0.93;;;;;;;5.66;100.00;91581.03;5018438;28;20513;-71
2022/01/11 01:08:24;;;;;;;1.23;1.17;;;;;;;5.64;100.00;91566.91;5018239;28;20329;-72
2022/01/11 01:10:52;;;;;;;1.10;1.10;;;;;;;5.60;100.00;91552.91;5019055;28;20640;-73
2022/01/11 01:13:22;;;;;;;0.87;0.87;;;;;;;5.56;100.00;91562.25;5017862;28;20444;-72
2022/01/11 01:15:52;;;;;;;1.00;1.00;;;;;;;5.47;100.00;91550.06;5018226;28;20592;-73
2022/01/11 01:18:23;;;;;;;0.70;0.70;;;;;;;5.51;100.00;91561.63;5018061;28;20467;-72
2022/01/11 01:20:52;;;;;;;0.80;0.80;;;;;;;5.57;100.00;91563.88;5018302;28;20515;-72
2022/01/11 01:23:19;;;;;;;0.60;0.60;;;;;;;5.52;100.00;91557.44;5018212;28;20555;-73
2022/01/11 01:25:48;;;;;;;0.60;0.60;;;;;;;5.48;100.00;91543.38;5017698;28;20626;-73
2022/01/11 01:28:15;;;;;;;1.83;1.40;;;;;;;5.62;100.00;91558.69;5017210;28;20659;-74
2022/01/11 01:30:45;;;;;;;1.13;1.13;;;;;;;5.70;100.00;91571.69;5017988;28;20648;-73
2022/01/11 01:33:12;;;;;;;0.93;0.93;;;;;;;5.30;100.00;91527.41;5018334;28;20485;-73
2022/01/11 01:35:41;;;;;;;0.90;0.90;;;;;;;5.52;100.00;91555.72;5018332;28;20578;-73
2022/01/11 01:38:09;;;;;;;0.70;0.70;;;;;;;5.49;100.00;91552.53;5016129;28;20594;-73
2022/01/11 01:40:41;;;;;;;1.30;1.17;;;;;;;5.49;100.00;91563.38;5016498;28;20561;-74
2022/01/11 01:43:10;;;;;;;0.77;0.60;;;;;;;5.32;100.00;91548.19;5017276;28;20198;-71
2022/01/11 01:45:39;;;;;;;1.10;0.83;;;;;;;5.50;100.00;91551.66;5017030;28;20233;-73
2022/01/11 01:48:07;;;;;;;0.77;0.77;;;;;;;5.60;100.00;91568.75;5017615;28;20586;-72
2022/01/11 01:50:35;;;;;;;0.60;0.60;;;;;;;5.45;100.00;91544.34;5016752;28;20528;-71
2022/01/11 01:53:10;;;;;;;0.77;0.77;;;;;;;5.69;100.00;91587.63;5017176;28;20442;-73
2022/01/11 01:55:39;;;;;;;0.70;0.70;;;;;;;5.61;100.00;91572.88;5017665;28;20549;-72
2022/01/11 01:58:07;;;;;;;1.00;1.00;;;;;;;5.67;100.00;91580.16;5018063;28;20479;-73
2022/01/11 02:00:40;;;;;;;0.70;0.70;;;;;;;5.62;100.00;91588.72;5016490;28;20478;-73
2022/01/11 02:03:13;;;;;;;0.50;0.50;;;;;;;5.50;100.00;91590.03;5017081;28;20202;-72
2022/01/11 02:05:42;;;;;;;0.50;0.50;;;;;;;5.47;100.00;91582.63;5016793;28;20574;-74
2022/01/11 02:08:11;;;;;;;1.07;0.87;;;;;;;4.86;100.00;91502.47;5016614;28;20573;-73
2022/01/11 02:10:39;;;;;;;0.60;0.60;;;;;;;5.14;100.00;91559.75;5017248;28;20598;-73
2022/01/11 02:13:08;;;;;;;0.60;0.60;;;;;;;5.06;100.00;91549.25;5016668;28;20617;-73
2022/01/11 02:15:36;;;;;;;0.70;0.70;;;;;;;5.30;100.00;91590.81;5017212;28;20635;-73
2022/01/11 02:18:12;;;;;;;0.60;0.60;;;;;;;5.33;100.00;91587.41;5016216;28;20474;-73
2022/01/11 02:20:43;;;;;;;0.70;0.70;;;;;;;4.94;100.00;91520.53;5016585;28;20448;-73
2022/01/11 02:23:10;;;;;;;0.47;0.47;;;;;;;5.24;100.00;91587.78;5016312;28;20555;-72
2022/01/11 02:25:39;;;;;;;2.10;0.50;;;;;;;5.19;100.00;91579.59;5016805;28;20575;-74
2022/01/11 02:28:07;;;;;;;0.70;0.70;;;;;;;5.31;100.00;91596.66;5016419;28;20518;-72
2022/01/11 02:30:35;;;;;;;0.60;0.60;;;;;;;5.40;100.00;91601.31;5016840;28;20558;-73
2022/01/11 02:33:09;;;;;;;0.50;0.50;;;;;;;5.43;100.00;91606.19;5017396;28;20674;-74
2022/01/11 02:35:36;;;;;;;0.40;0.40;;;;;;;5.49;100.00;91605.94;5016020;28;20279;-74
2022/01/11 02:38:05;;;;;;;0.43;0.43;;;;;;;5.38;100.00;91603.88;5016899;28;20564;-74
2022/01/11 02:40:32;;;;;;;0.50;0.50;;;;;;;5.26;100.00;91583.50;5016201;28;20293;-73
2022/01/11 02:42:59;;;;;;;0.83;0.50;;;;;;;4.89;100.00;91544.09;5016943;28;20577;-74
2022/01/11 02:45:26;;;;;;;0.60;0.60;;;;;;;4.91;100.00;91528.13;5015973;28;20537;-74
2022/01/11 02:47:54;;;;;;;0.60;0.60;;;;;;;4.96;100.00;91550.47;5016533;28;20598;-74
2022/01/11 02:50:21;;;;;;;0.80;0.80;;;;;;;5.33;100.00;91608.25;5016199;28;20216;-73
2022/01/11 02:52:48;;;;;;;0.60;0.60;;;;;;;5.26;99.24;91611.03;5016260;28;20559;-73
2022/01/11 02:55:17;;;;;;;0.50;0.50;;;;;;;5.23;99.18;91614.50;5016410;28;20467;-73
2022/01/11 02:57:45;;;;;;;0.40;0.40;;;;;;;5.21;99.37;91612.91;5015639;28;20586;-73
2022/01/11 03:00:15;;;;;;;0.43;0.43;;;;;;;5.18;99.91;91613.84;5016358;28;20198;-73
2022/01/11 03:02:43;;;;;;;0.97;0.90;;;;;;;5.16;99.89;91604.75;5016665;28;20562;-73
2022/01/11 03:05:12;;;;;;;0.40;0.40;;;;;;;5.16;98.17;91610.59;5016273;28;20563;-73
2022/01/11 03:07:40;;;;;;;0.50;0.50;;;;;;;5.17;98.76;91588.88;5015895;28;20554;-73
2022/01/11 03:10:17;;;;;;;0.37;0.37;;;;;;;5.23;97.68;91609.50;5016076;28;20460;-72
2022/01/11 03:12:46;;;;;;;0.40;0.40;;;;;;;5.19;98.79;91614.66;5016841;28;20542;-74
2022/01/11 03:15:13;;;;;;;0.50;0.50;;;;;;;5.28;98.18;91624.31;5017034;28;20252;-74
2022/01/11 03:17:41;;;;;;;0.30;0.30;;;;;;;5.41;98.24;91626.28;5015974;28;20574;-74
2022/01/11 03:20:10;;;;;;;0.40;0.40;;;;;;;5.24;99.32;91627.84;5015994;28;20189;-74
2022/01/11 03:22:38;;;;;;;0.50;0.50;;;;;;;5.27;98.57;91640.22;5016887;28;20584;-74
2022/01/11 03:25:07;;;;;;;0.50;0.50;;;;;;;5.06;99.86;91636.03;5015982;28;20577;-74
2022/01/11 03:27:35;;;;;;;0.30;0.30;;;;;;;4.83;99.91;91645.22;5016044;28;20487;-73
2022/01/11 03:30:05;;;;;;;0.43;0.43;;;;;;;4.79;100.00;91657.91;5017173;28;20598;-74
2022/01/11 03:32:32;;;;;;;0.40;0.40;;;;;;;4.72;100.00;91642.28;5015699;28;20593;-74
2022/01/11 03:34:59;;;;;;;0.63;0.63;;;;;;;4.63;100.00;91641.78;5015456;28;20482;-74
2022/01/11 03:37:27;;;;;;;0.70;0.70;;;;;;;4.67;100.00;91651.66;5015150;28;20489;-74
2022/01/11 03:39:54;;;;;;;0.60;0.60;;;;;;;4.36;100.00;91606.09;5016687;28;20597;-74
2022/01/11 03:42:21;;;;;;;0.77;0.77;;;;;;;4.53;100.00;91627.13;5015818;28;20466;-74
2022/01/11 03:44:50;;;;;;;0.43;0.43;;;;;;;4.68;100.00;91650.75;5016283;28;20472;-74
2022/01/11 03:47:19;;;;;;;0.50;0.50;;;;;;;4.54;100.00;91620.44;5015252;28;20234;-74
2022/01/11 03:49:47;;;;;;;0.40;0.40;;;;;;;4.34;100.00;91582.84;5014937;28;20244;-74
2022/01/11 03:52:14;;;;;;;0.40;0.40;;;;;;;4.53;100.00;91614.63;5015421;28;20206;-74
2022/01/11 03:55:01;;;;;;;0.60;0.60;;;;;;;4.76;100.00;91658.81;5016550;28;20455;-74
2022/01/11 03:57:29;;;;;;;0.67;0.67;;;;;;;4.73;100.00;91656.41;5015114;28;20554;-74
2022/01/11 03:59:57;;;;;;;0.60;0.60;;;;;;;4.56;100.00;91646.22;5015279;28;20198;-74
2022/01/11 04:02:27;;;;;;;0.67;0.50;;;;;;;4.66;100.00;91666.72;5018486;28;20482;-74
2022/01/11 04:04:55;;;;;;;0.50;0.50;;;;;;;4.56;100.00;91664.53;5019831;28;20570;-74
2022/01/11 04:07:23;;;;;;;0.40;0.40;;;;;;;4.47;100.00;91664.84;5019212;28;20285;-74
2022/01/11 04:09:53;;;;;;;0.50;0.50;;;;;;;4.51;100.00;91665.56;5019348;28;20261;-74
2022/01/11 04:12:21;;;;;;;0.90;0.90;;;;;;;4.41;100.00;91655.06;5020327;28;20213;-74
2022/01/11 04:14:48;;;;;;;1.97;1.17;;;;;;;4.21;100.00;91616.66;5020256;28;20494;-74
2022/01/11 04:17:16;;;;;;;0.50;0.50;;;;;;;3.92;100.00;91573.50;5018610;28;20202;-74
2022/01/11 04:19:45;;;;;;;0.60;0.60;;;;;;;3.95;100.00;91595.88;5019305;28;20190;-74
2022/01/11 04:22:12;;;;;;;0.70;0.70;;;;;;;4.20;100.00;91613.34;5018417;28;20508;-74
2022/01/11 04:24:39;;;;;;;0.77;0.77;;;;;;;4.65;100.00;91675.06;5018405;28;20458;-74
2022/01/11 04:27:08;;;;;;;0.80;0.80;;;;;;;4.68;100.00;91674.94;5018728;28;20589;-74
2022/01/11 04:29:35;;;;;;;2.73;2.30;;;;;;;4.49;100.00;91657.31;5018750;28;20698;-74
2022/01/11 04:32:03;;;;;;;2.47;2.27;;;;;;;4.29;100.00;91635.50;5018393;28;20470;-74
2022/01/11 04:34:30;;;;;;;1.90;1.80;;;;;;;4.49;100.00;91684.81;5018674;28;20489;-74
2022/01/11 04:36:58;;;;;;;2.07;1.30;;;;;;;3.78;100.00;91583.13;5019638;28;20487;-74
2022/01/11 04:39:26;;;;;;;0.80;0.80;;;;;;;4.43;100.00;91693.34;5018568;28;20225;-74
2022/01/11 04:41:53;;;;;;;0.67;0.67;;;;;;;4.34;100.00;91695.34;5018324;28;20601;-74
2022/01/11 04:44:20;;;;;;;6.43;3.77;;;;;;;4.08;100.00;91658.72;5018487;28;20574;-73
2022/01/11 04:46:47;;;;;;;31.87;14.27;;;;;;;4.28;100.00;91691.34;5019041;28;20549;-73
2022/01/11 04:49:15;;;;;;;11.30;5.40;;;;;;;4.26;100.00;91677.28;5017799;28;20517;-74
2022/01/11 04:51:44;;;;;;;5.23;3.33;;;;;;;4.09;100.00;91658.69;5018414;28;20566;-74
2022/01/11 04:54:14;;;;;;;14.77;6.97;;;;;;;4.36;100.00;91701.09;5018464;28;20460;-73
2022/01/11 04:56:41;;;;;;;12.70;7.20;;;;;;;4.48;100.00;91708.19;5018213;28;20616;-73
2022/01/11 04:59:09;;;;;;;147.43;45.07;;;;;;;4.29;100.00;91688.00;5019525;28;20471;-73
2022/01/11 05:01:36;;;;;;;135.10;42.20;;;;;;;4.50;100.00;91718.97;5018958;28;20478;-73
2022/01/11 05:04:03;;;;;;;149.57;54.67;;;;;;;4.46;100.00;91712.41;5017890;28;20644;-73
2022/01/11 05:06:31;;;;;;;15.47;7.27;;;;;;;4.30;100.00;91701.31;5018236;28;20578;-73
2022/01/11 05:08:58;;;;;;;9.60;3.50;;;;;;;4.30;100.00;91708.81;5018586;28;20669;-73
2022/01/11 05:11:27;;;;;;;11.47;6.03;;;;;;;4.31;100.00;91715.44;5017829;28;20583;-73
2022/01/11 05:13:56;;;;;;;19.37;7.37;;;;;;;4.20;100.00;91700.00;5017248;28;20570;-73
2022/01/11 05:16:23;;;;;;;2.67;2.47;;;;;;;3.88;100.00;91671.91;5017942;28;20597;-73
2022/01/11 05:18:50;;;;;;;1.87;1.77;;;;;;;4.02;100.00;91701.41;5017810;28;20610;-73
2022/01/11 05:21:18;;;;;;;11.43;7.17;;;;;;;4.21;100.00;91711.63;5017103;28;20205;-73
2022/01/11 05:23:45;;;;;;;4.17;3.87;;;;;;;4.21;100.00;91712.44;5017749;28;20186;-72
2022/01/11 05:26:12;;;;;;;5.57;4.90;;;;;;;4.11;100.00;91711.13;5017253;28;20607;-73
2022/01/11 05:28:41;;;;;;;8.43;5.00;;;;;;;3.86;100.00;91696.13;5017853;28;20495;-72
2022/01/11 05:31:08;;;;;;;3.43;3.10;;;;;;;4.07;100.00;91714.56;5017884;28;20198;-73
2022/01/11 05:33:36;;;;;;;4.70;4.13;;;;;;;3.87;100.00;91699.44;5017577;28;20558;-72
2022/01/11 05:36:03;;;;;;;8.00;5.70;;;;;;;3.85;100.00;91726.13;5018836;28;20542;-72
2022/01/11 05:38:30;;;;;;;15.47;7.77;;;;;;;3.98;100.00;91738.19;5022952;28;20566;-72
2022/01/11 05:40:58;;;;;;;4.63;4.27;;;;;;;4.06;100.00;91722.94;5017510;28;20525;-72
2022/01/11 05:43:25;;;;;;;4.20;3.90;;;;;;;4.17;100.00;91733.38;5017324;28;20573;-73
2022/01/11 05:45:54;;;;;;;4.63;4.13;;;;;;;4.23;100.00;91737.38;5012325;28;20641;-73
2022/01/11 05:48:21;;;;;;;7.20;3.13;;;;;;;4.19;100.00;91739.16;5018051;28;20606;-73
2022/01/11 05:50:48;;;;;;;4.90;4.50;;;;;;;4.14;100.00;91748.50;5013583;28;20229;-73
2022/01/11 05:53:15;;;;;;;13.27;6.43;;;;;;;4.17;100.00;91753.38;5012145;28;20579;-73
2022/01/11 05:55:43;;;;;;;7.80;6.60;;;;;;;4.06;100.00;91752.91;5020687;28;20569;-73
2022/01/11 05:58:10;;;;;;;6.93;6.33;;;;;;;3.99;100.00;91747.31;5015433;28;20225;-73
2022/01/11 06:00:37;;;;;;;43.83;16.80;;;;;;;4.03;100.00;91750.53;5015399;28;20210;-72
2022/01/11 06:03:06;;;;;;;35.27;18.67;;;;;;;3.91;100.00;91759.22;5015930;28;20539;-72
2022/01/11 06:05:37;;;;;;;23.80;13.40;;;;;;;4.01;100.00;91773.06;5013175;28;20634;-73
2022/01/11 06:08:06;;;;;;;6.53;4.93;;;;;;;4.02;100.00;91774.69;5010571;28;20576;-73
2022/01/11 06:10:33;;;;;;;9.83;8.83;;;;;;;4.10;100.00;91782.78;5010172;28;20548;-73
2022/01/11 06:13:00;;;;;;;19.20;11.63;;;;;;;4.01;100.00;91795.53;5012883;28;20585;-72
2022/01/11 06:15:29;;;;;;;8.53;7.83;;;;;;;3.91;100.00;91783.41;5012105;28;20276;-72
2022/01/11 06:17:56;;;;;;;7.23;6.70;;;;;;;3.95;100.00;91792.41;5010215;28;20318;-72
2022/01/11 06:20:25;;;;;;;15.80;7.43;;;;;;;3.89;100.00;91793.44;5010512;28;20563;-72
2022/01/11 06:22:53;;;;;;;13.83;10.60;;;;;;;3.94;100.00;91793.31;5012224;28;20558;-73
2022/01/11 06:25:20;;;;;;;15.10;10.10;;;;;;;3.97;100.00;91800.69;5006094;28;20627;-73
2022/01/11 06:27:48;;;;;;;27.57;15.87;;;;;;;3.81;100.00;91802.03;5009669;28;20547;-72
2022/01/11 06:30:17;;;;;;;7.33;5.97;;;;;;;3.77;100.00;91811.31;5006586;28;20617;-72
2022/01/11 06:32:45;;;;;;;11.53;8.03;;;;;;;3.68;100.00;91809.91;5009884;28;20516;-70
2022/01/11 06:35:14;;;;;;;12.27;8.83;;;;;;;3.65;100.00;91815.00;5009878;28;20566;-73
2022/01/11 06:37:42;;;;;;;15.70;10.63;;;;;;;3.78;100.00;91820.41;5014040;28;20645;-73
2022/01/11 06:40:11;;;;;;;12.53;9.73;;;;;;;3.63;100.00;91789.25;5012552;28;20633;-72
2022/01/11 06:42:39;;;;;;;21.93;12.87;;;;;;;3.78;100.00;91817.09;5012673;28;20649;-72
2022/01/11 06:45:07;;;;;;;14.53;11.63;;;;;;;3.76;100.00;91822.16;5014018;28;20481;-72
2022/01/11 06:47:34;;;;;;;22.97;13.97;;;;;;;3.70;100.00;91828.16;5013795;28;20742;-73
2022/01/11 06:50:02;;;;;;;38.43;17.33;;;;;;;3.71;100.00;91822.31;5016029;28;20629;-73
2022/01/11 06:52:29;;;;;;;33.63;18.47;;;;;;;3.85;100.00;91838.53;5015410;28;20202;-73
2022/01/11 06:54:58;;;;;;;31.87;19.10;;;;;;;3.81;100.00;91837.00;5018085;28;20469;-73
2022/01/11 06:57:27;;;;;;;32.00;17.97;;;;;;;3.73;100.00;91828.06;5019862;28;20602;-72
2022/01/11 06:59:54;;;;;;;86.93;38.10;;;;;;;3.80;100.00;91828.69;5016252;28;20488;-73
2022/01/11 07:02:21;;;;;;;30.77;16.30;;;;;;;3.83;100.00;91830.28;5013194;28;20582;-73
2022/01/11 07:04:48;;;;;;;21.37;11.90;;;;;;;3.87;100.00;91819.34;5018299;28;20512;-74
2022/01/11 07:07:16;;;;;;;53.33;16.40;;;;;;;4.02;100.00;91828.84;5014740;28;20559;-72
2022/01/11 07:09:43;;;;;;;38.67;16.53;;;;;;;4.04;100.00;91842.94;5010723;28;20214;-72
2022/01/11 07:12:13;;;;;;;19.00;13.20;;;;;;;4.05;100.00;91844.59;5016500;28;20613;-73
2022/01/11 07:14:40;;;;;;;24.27;12.73;;;;;;;4.05;100.00;91839.59;5013236;28;20479;-73
2022/01/11 07:17:07;;;;;;;11.53;10.43;;;;;;;4.17;100.00;91863.34;5013174;28;20496;-72
2022/01/11 07:19:35;;;;;;;20.60;13.77;;;;;;;3.92;100.00;91825.00;5012056;28;20562;-73
2022/01/11 07:22:02;;;;;;;14.73;10.37;;;;;;;3.86;100.00;91832.69;5012181;28;20226;-72
2022/01/11 07:24:30;;;;;;;17.87;12.17;;;;;;;3.75;100.00;91805.53;5008272;28;20554;-72
2022/01/11 07:26:57;;;;;;;14.60;10.63;;;;;;;4.13;100.00;91865.16;5014290;28;20488;-72
2022/01/11 07:29:26;;;;;;;20.57;14.47;;;;;;;4.16;100.00;91871.75;5012729;28;20637;-72
2022/01/11 07:31:53;;;;;;;12.27;7.07;;;;;;;4.09;100.00;91881.09;5011041;28;20605;-72
2022/01/11 07:34:25;;;;;;;7.17;6.60;;;;;;;4.04;100.00;91872.94;5012649;28;20582;-71
2022/01/11 07:36:53;;;;;;;5.93;4.50;;;;;;;4.12;100.00;91883.50;5013701;28;20524;-73
2022/01/11 07:39:20;;;;;;;5.70;5.27;;;;;;;4.14;100.00;91891.78;5022611;28;20625;-73
2022/01/11 07:41:47;;;;;;;6.90;5.67;;;;;;;4.16;100.00;91897.56;5016339;28;20616;-72
2022/01/11 07:44:15;;;;;;;7.50;6.87;;;;;;;4.00;100.00;91866.38;5015430;28;20575;-72
2022/01/11 07:46:44;;;;;;;5.80;5.50;;;;;;;4.14;100.00;91891.78;5014815;28;20504;-72
2022/01/11 07:49:12;;;;;;;15.03;9.37;;;;;;;4.18;100.00;91895.81;5015113;28;20619;-73
2022/01/11 07:51:39;;;;;;;15.70;8.43;;;;;;;4.10;100.00;91902.75;5012135;28;20613;-73
2022/01/11 07:54:08;;;;;;;7.93;5.33;;;;;;;3.98;100.00;91909.78;5000380;28;20509;-74
2022/01/11 07:56:35;;;;;;;5.33;4.90;;;;;;;3.75;100.00;91891.28;5008952;28;20562;-72
2022/01/11 07:59:02;;;;;;;7.43;6.33;;;;;;;3.71;100.00;91924.72;5010266;28;20605;-73
2022/01/11 08:01:29;;;;;;;14.57;7.00;;;;;;;3.77;100.00;91922.91;5008578;28;20612;-73
2022/01/11 08:03:59;;;;;;;5.73;5.23;;;;;;;3.67;100.00;91928.13;5016471;28;20553;-72
2022/01/11 08:06:27;;;;;;;5.63;5.13;;;;;;;3.64;100.00;91922.41;5015389;28;20206;-73
2022/01/11 08:08:54;;;;;;;8.00;7.37;;;;;;;3.67;100.00;91920.63;5014892;28;20482;-73
2022/01/11 08:11:21;;;;;;;3.47;2.20;;;;;;;3.81;100.00;91929.44;5016602;28;20241;-73
2022/01/11 08:13:49;;;;;;;1.93;1.83;;;;;;;3.84;100.00;91936.81;5015921;28;20586;-73
2022/01/11 08:16:16;;;;;;;4.20;3.90;;;;;;;3.79;100.00;91918.66;5021336;28;20658;-73
2022/01/11 08:18:43;;;;;;;4.73;4.33;;;;;;;3.80;100.00;91928.63;5016611;28;20251;-73
2022/01/11 08:21:12;;;;;;;10.73;9.50;;;;;;;3.88;100.00;91945.88;5017096;28;20574;-73
2022/01/11 08:23:39;;;;;;;7.03;6.33;;;;;;;3.83;100.00;91941.00;5017735;28;20577;-73
2022/01/11 08:26:06;;;;;;;97.33;27.00;;;;;;;3.91;100.00;91951.59;5014808;28;20210;-72
2022/01/11 08:28:34;;;;;;;73.03;17.60;;;;;;;3.85;100.00;91954.28;5014974;28;20229;-73
2022/01/11 08:31:03;;;;;;;31.30;13.23;;;;;;;3.96;100.00;91961.47;5014852;28;20473;-73
2022/01/11 08:33:30;;;;;;;22.13;14.13;;;;;;;3.98;100.00;91962.25;5017046;28;20501;-71
2022/01/11 08:35:57;;;;;;;17.23;10.93;;;;;;;3.92;100.00;91933.25;5020713;28;20581;-71
2022/01/11 08:38:26;;;;;;;7.57;6.90;;;;;;;4.13;100.00;91957.63;5008975;28;20190;-73
2022/01/11 08:40:53;;;;;;;5.47;5.10;;;;;;;4.19;100.00;91971.63;5016691;28;20594;-72
2022/01/11 08:43:20;;;;;;;39.13;16.03;;;;;;;4.23;100.00;91969.84;5018983;28;20197;-72
2022/01/11 08:45:48;;;;;;;15.93;11.53;;;;;;;4.21;100.00;91949.09;5013947;28;20470;-73
2022/01/11 08:48:15;;;;;;;10.37;9.33;;;;;;;4.35;100.00;91969.47;5015134;28;20653;-73
2022/01/11 08:50:42;;;;;;;10.37;9.23;;;;;;;4.18;100.00;91949.97;5013170;28;20236;-73
2022/01/11 08:53:10;;;;;;;17.03;8.97;;;;;;;4.30;100.00;91967.13;5013908;28;20547;-73
2022/01/11 08:55:38;;;;;;;26.13;11.77;;;;;;;4.26;100.00;91958.09;5016613;28;20652;-73
2022/01/11 08:58:06;;;;;;;42.17;19.63;;;;;;;4.30;100.00;91964.63;5012623;28;20563;-73
2022/01/11 09:00:33;;;;;;;7.37;6.73;;;;;;;4.31;100.00;91963.75;5015329;28;20461;-73
2022/01/11 09:03:00;;;;;;;28.40;15.33;;;;;;;4.30;100.00;91967.13;5016685;28;20555;-72
2022/01/11 09:05:27;;;;;;;19.03;11.87;;;;;;;4.32;100.00;91977.09;5017454;28;20481;-74
2022/01/11 09:07:54;;;;;;;8.70;8.00;;;;;;;4.22;100.00;91963.22;5015158;28;20598;-74
2022/01/11 09:10:22;;;;;;;19.20;10.00;;;;;;;4.09;100.00;91943.59;5013362;28;20521;-73
2022/01/11 09:12:50;;;;;;;4.77;4.47;;;;;;;4.15;100.00;91975.06;5014352;28;20484;-73
2022/01/11 09:15:19;;;;;;;14.73;12.17;;;;;;;3.93;100.00;91959.06;5015422;28;20201;-72
2022/01/11 09:17:47;;;;;;;5.10;4.90;;;;;;;3.99;100.00;91979.69;5015422;28;20633;-73
2022/01/11 09:20:16;;;;;;;7.80;7.10;;;;;;;3.46;100.00;91885.47;5011868;28;20640;-73
2022/01/11 09:22:44;;;;;;;11.37;7.87;;;;;;;4.04;100.00;91975.38;5012231;28;20489;-74
2022/01/11 09:25:14;;;;;;;45.27;15.40;;;;;;;3.95;100.00;91970.63;5014106;28;20273;-72
2022/01/11 09:27:41;;;;;;;40.80;15.60;;;;;;;3.96;100.00;91967.28;5016519;28;20559;-73
2022/01/11 09:30:14;;;;;;;10.03;8.97;;;;;;;3.94;100.00;91965.69;5014324;28;20619;-74
2022/01/11 09:32:42;;;;;;;18.40;12.40;;;;;;;3.79;100.00;91946.94;5012896;28;20593;-73
2022/01/11 09:35:12;;;;;;;37.30;20.33;;;;;;;3.91;100.00;91964.09;5013116;28;20269;-73
2022/01/11 09:37:39;;;;;;;23.77;13.23;;;;;;;3.94;100.00;91965.69;5013092;28;20217;-73
2022/01/11 09:40:09;;;;;;;14.37;9.37;;;;;;;3.89;100.00;91960.81;5012000;28;20646;-73
2022/01/11 09:42:37;;;;;;;7.00;5.47;;;;;;;3.85;100.00;91966.75;5013710;28;20655;-72
2022/01/11 09:45:05;;;;;;;39.63;16.93;;;;;;;3.79;100.00;91959.44;5015187;28;20625;-73
2022/01/11 09:47:33;;;;;;;26.27;9.93;;;;;;;3.75;100.00;91970.38;5012780;28;20607;-73
2022/01/11 09:50:01;;;;;;;26.00;14.37;;;;;;;3.75;100.00;91967.88;5015306;28;20332;-74
2022/01/11 09:52:28;;;;;;;21.60;13.93;;;;;;;3.81;100.00;91965.22;5011896;28;20477;-73
2022/01/11 09:54:56;;;;;;;14.47;10.20;;;;;;;3.80;100.00;91958.59;5013544;28;20685;-73
2022/01/11 09:57:24;;;;;;;7.00;6.13;;;;;;;3.72;100.00;91966.28;5008722;28;20617;-73
2022/01/11 09:59:51;;;;;;;8.83;6.83;;;;;;;3.61;100.00;91958.25;5016388;28;20638;-73
2022/01/11 10:02:19;;;;;;;10.87;7.57;;;;;;;3.62;100.00;91956.59;5017056;28;20255;-73
2022/01/11 10:04:55;;;;;;;3.90;3.70;;;;;;;3.71;100.00;91967.16;5017276;28;20198;-72
2022/01/11 10:07:29;;;;;;;8.23;7.53;;;;;;;3.75;100.00;91961.22;5012202;28;20475;-73
2022/01/11 10:09:56;;;;;;;3.87;3.33;;;;;;;3.68;100.00;91952.25;5013944;28;20594;-72
2022/01/11 10:12:24;;;;;;;2.40;2.30;;;;;;;3.72;100.00;91965.47;5013155;28;20330;-72
2022/01/11 10:14:53;;;;;;;6.83;2.93;;;;;;;3.78;100.00;91969.47;5011288;28;20554;-71
2022/01/11 10:17:23;;;;;;;3.97;3.53;;;;;;;3.52;100.00;91945.22;5014245;28;20550;-73
2022/01/11 10:20:00;;;;;;;3.90;3.70;;;;;;;3.53;100.00;91964.34;5016868;28;20336;-72
2022/01/11 10:22:30;;;;;;;57.17;22.80;;;;;;;3.54;100.00;91964.31;5015717;28;20198;-73
2022/01/11 10:24:58;;;;;;;30.00;11.77;;;;;;;3.60;100.00;91963.31;5016192;28;20579;-72
2022/01/11 10:27:28;;;;;;;4.47;3.90;;;;;;;3.63;100.00;91973.22;5013879;28;20500;-73
2022/01/11 10:29:57;;;;;;;5.93;5.43;;;;;;;3.65;100.00;91971.50;5015528;28;20520;-73
2022/01/11 10:32:30;;;;;;;6.70;5.57;;;;;;;3.60;100.00;91969.16;5016167;28;20554;-73
2022/01/11 10:35:02;;;;;;;90.07;29.43;;;;;;;3.71;100.00;91974.66;5013346;28;20307;-73
2022/01/11 10:37:35;;;;;;;32.37;15.30;;;;;;;3.73;100.00;91974.59;5021521;28;20473;-73
2022/01/11 10:40:09;;;;;;;28.30;11.27;;;;;;;3.69;100.00;91970.56;5013835;28;20523;-72
2022/01/11 10:42:41;;;;;;;12.60;5.63;;;;;;;3.70;100.00;91979.69;5016312;28;20206;-72
2022/01/11 10:45:10;;;;;;;18.87;11.67;;;;;;;3.68;100.00;91961.41;5012560;28;20479;-73
2022/01/11 10:47:40;;;;;;;3.87;3.60;;;;;;;3.73;100.00;91972.91;5013454;28;20222;-73
2022/01/11 10:50:12;;;;;;;3.03;1.73;;;;;;;3.60;100.00;91958.34;5013588;28;20583;-73
2022/01/11 10:52:42;;;;;;;2.60;2.47;;;;;;;3.58;100.00;91975.03;5011723;28;20583;-73
2022/01/11 10:55:14;;;;;;;6.50;6.10;;;;;;;3.61;100.00;91960.75;5015738;28;20553;-73
2022/01/11 10:57:43;;;;;;;4.80;4.50;;;;;;;3.48;100.00;91946.19;5016930;28;20211;-73
2022/01/11 11:00:17;;;;;;;4.33;3.00;;;;;;;3.62;100.00;91974.91;5011394;28;20625;-73
2022/01/11 11:02:49;;;;;;;8.40;6.47;;;;;;;3.63;100.00;91964.06;5017367;28;20590;-74
2022/01/11 11:05:23;;;;;;;6.70;6.20;;;;;;;3.68;100.00;91974.72;5014863;28;20558;-73
2022/01/11 11:08:00;;;;;;;12.40;10.73;;;;;;;3.64;100.00;91967.38;5014970;28;20293;-73
2022/01/11 11:10:37;;;;;;;5.73;5.33;;;;;;;3.59;100.00;91979.16;5014337;28;20317;-73
2022/01/11 11:13:07;;;;;;;7.60;6.87;;;;;;;3.49;100.00;91956.13;5011685;28;20201;-73
2022/01/11 11:15:36;;;;;;;9.57;7.83;;;;;;;3.69;100.00;91971.38;5014708;28;20558;-73
2022/01/11 11:18:05;;;;;;;6.93;6.47;;;;;;;3.75;100.00;91971.22;5011515;28;20523;-73
2022/01/11 11:20:36;;;;;;;20.43;14.83;;;;;;;3.72;100.00;91958.78;5012131;28;20597;-73
2022/01/11 11:23:05;;;;;;;12.83;9.57;;;;;;;3.69;100.00;91956.38;5019493;28;20556;-72
2022/01/11 11:25:32;;;;;;;19.13;12.27;;;;;;;3.67;100.00;91967.28;5010931;28;20549;-73
2022/01/11 11:27:59;;;;;;;7.27;6.60;;;;;;;3.64;100.00;91968.19;5011741;28;20639;-73
2022/01/11 11:30:26;;;;;;;17.83;12.60;;;;;;;3.61;100.00;91959.94;5013214;28;20633;-73
2022/01/11 11:32:54;;;;;;;7.83;6.90;;;;;;;3.59;100.00;91960.00;5016439;28;20651;-72
2022/01/11 11:35:22;;;;;;;6.50;6.10;;;;;;;3.68;100.00;91963.91;5013095;28;20471;-73
2022/01/11 11:37:56;;;;;;;2.17;2.10;;;;;;;3.55;100.00;91960.13;5013702;28;20267;-73